sensor_id;sensor_type;location;lat;lon;timestamp;pressure;altitude;pressure_sealevel;temperature;humidity
31771;BME280;18343;50.152;8.182;2023-02-28T00:00:42;98421.09;;;1.88;54.20
31771;BME280;18343;50.152;8.182;2023-02-28T00:03:27;98416.13;;;1.84;54.04
31771;BME280;18343;50.152;8.182;2023-02-28T00:06:11;98423.13;;;1.85;54.08
31771;BME280;18343;50.152;8.182;2023-02-28T00:08:57;98416.25;;;1.82;54.07
31771;BME280;18343;50.152;8.182;2023-02-28T00:11:42;98411.03;;;1.81;54.15
31771;BME280;18343;50.152;8.182;2023-02-28T00:14:27;98412.13;;;1.78;54.38
31771;BME280;18343;50.152;8.182;2023-02-28T00:17:12;98405.84;;;1.79;54.51
31771;BME280;18343;50.152;8.182;2023-02-28T00:19:58;98412.84;;;1.80;54.42
31771;BME280;18343;50.152;8.182;2023-02-28T00:22:45;98409.47;;;1.78;54.13
31771;BME280;18343;50.152;8.182;2023-02-28T00:25:32;98407.03;;;1.75;54.62
31771;BME280;18343;50.152;8.182;2023-02-28T00:28:17;98413.41;;;1.73;54.74
31771;BME280;18343;50.152;8.182;2023-02-28T00:31:02;98411.72;;;1.72;54.33
31771;BME280;18343;50.152;8.182;2023-02-28T00:33:47;98415.56;;;1.67;54.47
31771;BME280;18343;50.152;8.182;2023-02-28T00:36:32;98416.03;;;1.61;54.50
31771;BME280;18343;50.152;8.182;2023-02-28T00:39:16;98408.41;;;1.57;54.56
31771;BME280;18343;50.152;8.182;2023-02-28T00:42:05;98410.09;;;1.58;54.75
31771;BME280;18343;50.152;8.182;2023-02-28T00:44:50;98408.63;;;1.54;54.57
31771;BME280;18343;50.152;8.182;2023-02-28T00:47:35;98413.19;;;1.52;54.70
31771;BME280;18343;50.152;8.182;2023-02-28T00:50:20;98412.56;;;1.48;54.30
31771;BME280;18343;50.152;8.182;2023-02-28T00:53:05;98408.66;;;1.41;54.37
31771;BME280;18343;50.152;8.182;2023-02-28T00:55:50;98410.69;;;1.38;54.76
31771;BME280;18343;50.152;8.182;2023-02-28T00:58:36;98409.25;;;1.33;54.70
31771;BME280;18343;50.152;8.182;2023-02-28T01:01:21;98413.91;;;1.30;54.93
31771;BME280;18343;50.152;8.182;2023-02-28T01:04:05;98416.06;;;1.25;54.82
31771;BME280;18343;50.152;8.182;2023-02-28T01:06:50;98411.81;;;1.22;55.08
31771;BME280;18343;50.152;8.182;2023-02-28T01:09:35;98415.31;;;1.23;55.25
31771;BME280;18343;50.152;8.182;2023-02-28T01:12:20;98417.34;;;1.19;55.19
31771;BME280;18343;50.152;8.182;2023-02-28T01:15:10;98413.09;;;1.17;55.38
31771;BME280;18343;50.152;8.182;2023-02-28T01:17:54;98415.34;;;1.10;55.39
31771;BME280;18343;50.152;8.182;2023-02-28T01:20:39;98415.59;;;1.07;55.24
31771;BME280;18343;50.152;8.182;2023-02-28T01:23:24;98408.81;;;1.03;55.51
31771;BME280;18343;50.152;8.182;2023-02-28T01:26:12;98413.25;;;1.02;55.80
31771;BME280;18343;50.152;8.182;2023-02-28T01:28:57;98405.31;;;1.02;55.62
31771;BME280;18343;50.152;8.182;2023-02-28T01:31:43;98408.19;;;0.99;55.70
31771;BME280;18343;50.152;8.182;2023-02-28T01:34:28;98404.16;;;0.94;55.57
31771;BME280;18343;50.152;8.182;2023-02-28T01:37:13;98403.31;;;0.93;55.98
31771;BME280;18343;50.152;8.182;2023-02-28T01:39:57;98407.13;;;0.89;55.84
31771;BME280;18343;50.152;8.182;2023-02-28T01:42:42;98400.34;;;0.85;56.01
31771;BME280;18343;50.152;8.182;2023-02-28T01:45:29;98405.16;;;0.80;56.04
31771;BME280;18343;50.152;8.182;2023-02-28T01:48:16;98398.59;;;0.73;55.80
31771;BME280;18343;50.152;8.182;2023-02-28T01:51:05;98402.41;;;0.69;55.80
31771;BME280;18343;50.152;8.182;2023-02-28T01:53:55;98397.53;;;0.63;56.03
31771;BME280;18343;50.152;8.182;2023-02-28T01:56:47;98406.31;;;0.63;56.29
31771;BME280;18343;50.152;8.182;2023-02-28T01:59:38;98398.38;;;0.63;56.26
31771;BME280;18343;50.152;8.182;2023-02-28T02:02:27;98396.78;;;0.61;56.49
31771;BME280;18343;50.152;8.182;2023-02-28T02:05:18;98393.50;;;0.57;56.33
31771;BME280;18343;50.152;8.182;2023-02-28T02:08:05;98391.19;;;0.53;56.60
31771;BME280;18343;50.152;8.182;2023-02-28T02:10:53;98392.03;;;0.53;56.60
31771;BME280;18343;50.152;8.182;2023-02-28T02:14:03;98391.09;;;0.54;56.60
31771;BME280;18343;50.152;8.182;2023-02-28T02:17:13;98383.47;;;0.50;56.48
31771;BME280;18343;50.152;8.182;2023-02-28T02:28:32;98378.94;;;0.26;56.13
31771;BME280;18343;50.152;8.182;2023-02-28T02:31:53;98385.59;;;0.19;56.76
31771;BME280;18343;50.152;8.182;2023-02-28T02:34:55;98386.75;;;0.15;57.13
31771;BME280;18343;50.152;8.182;2023-02-28T02:37:47;98375.41;;;0.13;57.37
31771;BME280;18343;50.152;8.182;2023-02-28T02:40:38;98378.81;;;0.15;57.50
31771;BME280;18343;50.152;8.182;2023-02-28T02:43:33;98387.50;;;0.17;57.57
31771;BME280;18343;50.152;8.182;2023-02-28T02:46:26;98386.19;;;0.10;57.38
31771;BME280;18343;50.152;8.182;2023-02-28T02:49:17;98384.72;;;0.06;57.23
31771;BME280;18343;50.152;8.182;2023-02-28T02:52:13;98381.44;;;0.03;57.28
31771;BME280;18343;50.152;8.182;2023-02-28T02:55:00;98380.06;;;-0.03;57.54
31771;BME280;18343;50.152;8.182;2023-02-28T02:57:49;98385.56;;;-0.06;57.40
31771;BME280;18343;50.152;8.182;2023-02-28T03:00:40;98384.91;;;-0.10;57.98
31771;BME280;18343;50.152;8.182;2023-02-28T03:03:27;98385.97;;;-0.12;57.82
31771;BME280;18343;50.152;8.182;2023-02-28T03:06:15;98389.66;;;-0.15;58.23
31771;BME280;18343;50.152;8.182;2023-02-28T03:09:05;98385.03;;;-0.11;58.42
31771;BME280;18343;50.152;8.182;2023-02-28T03:11:52;98389.75;;;-0.16;58.35
31771;BME280;18343;50.152;8.182;2023-02-28T03:14:52;98387.00;;;-0.15;58.38
31771;BME280;18343;50.152;8.182;2023-02-28T03:18:02;98382.78;;;-0.17;58.21
31771;BME280;18343;50.152;8.182;2023-02-28T03:20:58;98387.41;;;-0.21;58.93
31771;BME280;18343;50.152;8.182;2023-02-28T03:23:53;98390.38;;;-0.25;58.26
31771;BME280;18343;50.152;8.182;2023-02-28T03:26:46;98392.28;;;-0.27;58.50
31771;BME280;18343;50.152;8.182;2023-02-28T03:29:39;98383.81;;;-0.32;58.56
31771;BME280;18343;50.152;8.182;2023-02-28T03:32:28;98382.53;;;-0.40;58.45
31771;BME280;18343;50.152;8.182;2023-02-28T03:35:18;98395.09;;;-0.43;58.71
31771;BME280;18343;50.152;8.182;2023-02-28T03:38:10;98385.66;;;-0.47;58.70
31771;BME280;18343;50.152;8.182;2023-02-28T03:41:05;98382.16;;;-0.48;59.19
31771;BME280;18343;50.152;8.182;2023-02-28T03:43:55;98385.66;;;-0.47;59.22
31771;BME280;18343;50.152;8.182;2023-02-28T03:46:44;98390.28;;;-0.51;59.12
31771;BME280;18343;50.152;8.182;2023-02-28T03:49:36;98390.28;;;-0.51;59.68
31771;BME280;18343;50.152;8.182;2023-02-28T03:52:28;98388.59;;;-0.52;59.86
31771;BME280;18343;50.152;8.182;2023-02-28T03:55:20;98390.28;;;-0.51;59.87
31771;BME280;18343;50.152;8.182;2023-02-28T03:58:14;98388.41;;;-0.49;60.21
31771;BME280;18343;50.152;8.182;2023-02-28T04:01:07;98396.88;;;-0.44;60.30
31771;BME280;18343;50.152;8.182;2023-02-28T04:03:52;98399.41;;;-0.42;60.32
31771;BME280;18343;50.152;8.182;2023-02-28T04:06:38;98388.94;;;-0.44;59.76
31771;BME280;18343;50.152;8.182;2023-02-28T04:09:25;98396.31;;;-0.49;59.94
31771;BME280;18343;50.152;8.182;2023-02-28T04:12:09;98404.44;;;-0.52;59.84
31771;BME280;18343;50.152;8.182;2023-02-28T04:14:54;98403.19;;;-0.59;59.95
31771;BME280;18343;50.152;8.182;2023-02-28T04:17:41;98406.75;;;-0.60;60.25
31771;BME280;18343;50.152;8.182;2023-02-28T04:20:25;98395.53;;;-0.63;60.44
31771;BME280;18343;50.152;8.182;2023-02-28T04:23:10;98394.78;;;-0.65;60.01
31771;BME280;18343;50.152;8.182;2023-02-28T04:25:55;98400.56;;;-0.73;59.91
31771;BME280;18343;50.152;8.182;2023-02-28T04:28:40;98391.91;;;-0.75;60.46
31771;BME280;18343;50.152;8.182;2023-02-28T04:31:25;98392.00;;;-0.77;60.60
31771;BME280;18343;50.152;8.182;2023-02-28T04:34:11;98400.19;;;-0.81;60.57
31771;BME280;18343;50.152;8.182;2023-02-28T04:36:56;98397.69;;;-0.83;61.06
31771;BME280;18343;50.152;8.182;2023-02-28T04:39:43;98396.94;;;-0.85;61.41
31771;BME280;18343;50.152;8.182;2023-02-28T04:42:28;98391.00;;;-0.88;61.45
31771;BME280;18343;50.152;8.182;2023-02-28T04:45:12;98395.34;;;-0.87;61.63
31771;BME280;18343;50.152;8.182;2023-02-28T04:47:57;98383.75;;;-0.85;61.77
31771;BME280;18343;50.152;8.182;2023-02-28T04:50:43;98389.78;;;-0.83;61.84
31771;BME280;18343;50.152;8.182;2023-02-28T04:53:28;98389.78;;;-0.83;61.84
31771;BME280;18343;50.152;8.182;2023-02-28T04:56:15;98389.78;;;-0.83;62.19
31771;BME280;18343;50.152;8.182;2023-02-28T04:59:00;98387.22;;;-0.84;62.17
31771;BME280;18343;50.152;8.182;2023-02-28T05:01:47;98386.38;;;-0.85;62.57
31771;BME280;18343;50.152;8.182;2023-02-28T05:04:33;98391.75;;;-0.86;62.80
31771;BME280;18343;50.152;8.182;2023-02-28T05:07:19;98381.94;;;-0.84;62.85
31771;BME280;18343;50.152;8.182;2023-02-28T05:10:04;98386.28;;;-0.83;62.77
31771;BME280;18343;50.152;8.182;2023-02-28T05:12:49;98390.72;;;-0.84;62.98
31771;BME280;18343;50.152;8.182;2023-02-28T05:15:33;98401.19;;;-0.82;63.40
31771;BME280;18343;50.152;8.182;2023-02-28T05:18:18;98400.84;;;-0.78;63.43
31771;BME280;18343;50.152;8.182;2023-02-28T05:21:03;98399.91;;;-0.77;63.26
31771;BME280;18343;50.152;8.182;2023-02-28T05:23:49;98403.31;;;-0.75;63.30
31771;BME280;18343;50.152;8.182;2023-02-28T05:26:35;98402.66;;;-0.78;63.32
31771;BME280;18343;50.152;8.182;2023-02-28T05:29:20;98407.09;;;-0.79;63.56
31771;BME280;18343;50.152;8.182;2023-02-28T05:32:05;98411.50;;;-0.79;63.78
31771;BME280;18343;50.152;8.182;2023-02-28T05:34:49;98400.00;;;-0.78;63.73
31771;BME280;18343;50.152;8.182;2023-02-28T05:37:34;98406.03;;;-0.76;64.16
31771;BME280;18343;50.152;8.182;2023-02-28T05:40:21;98405.00;;;-0.74;64.02
31771;BME280;18343;50.152;8.182;2023-02-28T05:43:07;98404.91;;;-0.72;64.48
31771;BME280;18343;50.152;8.182;2023-02-28T05:45:52;98407.34;;;-0.69;64.83
31771;BME280;18343;50.152;8.182;2023-02-28T05:48:39;98409.03;;;-0.68;64.95
31771;BME280;18343;50.152;8.182;2023-02-28T05:51:30;98403.38;;;-0.62;64.93
31771;BME280;18343;50.152;8.182;2023-02-28T05:54:15;98404.97;;;-0.59;65.23
31771;BME280;18343;50.152;8.182;2023-02-28T05:57:16;98410.59;;;-0.51;65.10
31771;BME280;18343;50.152;8.182;2023-02-28T06:00:01;98406.34;;;-0.54;65.20
31771;BME280;18343;50.152;8.182;2023-02-28T06:03:06;98411.22;;;-0.48;65.52
31771;BME280;18343;50.152;8.182;2023-02-28T06:06:13;98412.53;;;-0.41;65.81
31771;BME280;18343;50.152;8.182;2023-02-28T06:08:58;98408.94;;;-0.40;65.78
31771;BME280;18343;50.152;8.182;2023-02-28T06:11:46;98414.03;;;-0.37;65.92
31771;BME280;18343;50.152;8.182;2023-02-28T06:14:33;98416.47;;;-0.33;66.33
31771;BME280;18343;50.152;8.182;2023-02-28T06:17:18;98419.88;;;-0.31;66.07
31771;BME280;18343;50.152;8.182;2023-02-28T06:20:04;98417.97;;;-0.29;65.98
31771;BME280;18343;50.152;8.182;2023-02-28T06:22:49;98423.78;;;-0.24;66.45
31771;BME280;18343;50.152;8.182;2023-02-28T06:25:33;98416.69;;;-0.24;66.71
31771;BME280;18343;50.152;8.182;2023-02-28T06:28:18;98422.72;;;-0.22;66.96
31771;BME280;18343;50.152;8.182;2023-02-28T06:31:08;98427.72;;;-0.17;66.78
31771;BME280;18343;50.152;8.182;2023-02-28T06:33:53;98426.66;;;-0.15;66.87
31771;BME280;18343;50.152;8.182;2023-02-28T06:36:38;98429.31;;;-0.15;67.12
31771;BME280;18343;50.152;8.182;2023-02-28T06:39:23;98436.19;;;-0.12;67.39
31771;BME280;18343;50.152;8.182;2023-02-28T06:42:08;98439.47;;;-0.09;67.70
31771;BME280;18343;50.152;8.182;2023-02-28T06:44:55;98435.88;;;-0.08;67.20
31771;BME280;18343;50.152;8.182;2023-02-28T06:47:42;98429.97;;;-0.11;67.54
31771;BME280;18343;50.152;8.182;2023-02-28T06:50:42;98434.50;;;-0.13;67.70
31771;BME280;18343;50.152;8.182;2023-02-28T06:53:27;98440.44;;;-0.10;67.63
31771;BME280;18343;50.152;8.182;2023-02-28T06:56:14;98440.72;;;-0.14;67.99
31771;BME280;18343;50.152;8.182;2023-02-28T06:58:59;98433.56;;;-0.12;67.62
31771;BME280;18343;50.152;8.182;2023-02-28T07:02:02;98439.47;;;-0.09;67.53
31771;BME280;18343;50.152;8.182;2023-02-28T07:04:48;98440.63;;;-0.13;67.82
31771;BME280;18343;50.152;8.182;2023-02-28T07:07:33;98438.00;;;-0.13;68.15
31771;BME280;18343;50.152;8.182;2023-02-28T07:10:21;98438.84;;;-0.12;68.59
31771;BME280;18343;50.152;8.182;2023-02-28T07:13:07;98443.19;;;-0.11;68.64
31771;BME280;18343;50.152;8.182;2023-02-28T07:15:56;98446.13;;;-0.16;69.26
31771;BME280;18343;50.152;8.182;2023-02-28T07:18:41;98447.91;;;-0.16;69.09
31771;BME280;18343;50.152;8.182;2023-02-28T07:21:27;98459.97;;;-0.12;69.19
31771;BME280;18343;50.152;8.182;2023-02-28T07:24:12;98458.94;;;-0.10;68.98
31771;BME280;18343;50.152;8.182;2023-02-28T07:26:57;98457.44;;;-0.14;69.19
31771;BME280;18343;50.152;8.182;2023-02-28T07:29:44;98459.44;;;-0.17;69.82
31771;BME280;18343;50.152;8.182;2023-02-28T07:33:01;98450.84;;;-0.21;70.17
31771;BME280;18343;50.152;8.182;2023-02-28T07:35:46;98449.63;;;-0.15;69.71
31771;BME280;18343;50.152;8.182;2023-02-28T07:38:34;98452.50;;;-0.06;69.81
31771;BME280;18343;50.152;8.182;2023-02-28T07:41:21;98458.34;;;-0.01;69.87
31771;BME280;18343;50.152;8.182;2023-02-28T07:44:18;98456.31;;;0.03;70.05
31771;BME280;18343;50.152;8.182;2023-02-28T07:47:03;98454.75;;;0.13;70.49
31771;BME280;18343;50.152;8.182;2023-02-28T07:49:48;98446.22;;;0.22;70.50
31771;BME280;18343;50.152;8.182;2023-02-28T07:52:32;98453.50;;;0.31;70.96
31771;BME280;18343;50.152;8.182;2023-02-28T07:55:19;98448.00;;;0.34;71.25
31771;BME280;18343;50.152;8.182;2023-02-28T07:58:03;98452.25;;;0.37;71.58
31771;BME280;18343;50.152;8.182;2023-02-28T08:00:48;98453.22;;;0.49;72.05
31771;BME280;18343;50.152;8.182;2023-02-28T08:03:35;98458.72;;;0.58;72.02
31771;BME280;18343;50.152;8.182;2023-02-28T08:06:23;98451.50;;;0.60;72.42
31771;BME280;18343;50.152;8.182;2023-02-28T08:09:10;98453.53;;;0.70;72.05
31771;BME280;18343;50.152;8.182;2023-02-28T08:11:56;98451.75;;;0.70;71.99
31771;BME280;18343;50.152;8.182;2023-02-28T08:14:40;98450.56;;;0.74;72.38
31771;BME280;18343;50.152;8.182;2023-02-28T08:17:25;98447.25;;;0.83;72.85
31771;BME280;18343;50.152;8.182;2023-02-28T08:20:11;98444.41;;;0.86;73.15
31771;BME280;18343;50.152;8.182;2023-02-28T08:22:56;98449.59;;;1.00;72.97
31771;BME280;18343;50.152;8.182;2023-02-28T08:25:40;98440.88;;;1.11;72.65
31771;BME280;18343;50.152;8.182;2023-02-28T08:28:26;98441.81;;;1.23;72.92
31771;BME280;18343;50.152;8.182;2023-02-28T08:31:14;98442.97;;;1.31;73.11
31771;BME280;18343;50.152;8.182;2023-02-28T08:33:59;98454.06;;;1.37;72.80
31771;BME280;18343;50.152;8.182;2023-02-28T08:36:43;98446.50;;;1.43;72.61
31771;BME280;18343;50.152;8.182;2023-02-28T08:39:40;98445.84;;;1.52;72.74
31771;BME280;18343;50.152;8.182;2023-02-28T08:42:25;98452.19;;;1.62;72.62
31771;BME280;18343;50.152;8.182;2023-02-28T08:45:37;98444.72;;;1.67;72.74
31771;BME280;18343;50.152;8.182;2023-02-28T08:48:22;98446.53;;;1.67;72.63
31771;BME280;18343;50.152;8.182;2023-02-28T08:51:10;98448.16;;;1.81;72.13
31771;BME280;18343;50.152;8.182;2023-02-28T08:53:58;98451.03;;;1.54;71.65
31771;BME280;18343;50.152;8.182;2023-02-28T08:56:43;98455.16;;;1.34;68.38
31771;BME280;18343;50.152;8.182;2023-02-28T08:59:28;98444.50;;;1.70;70.97
31771;BME280;18343;50.152;8.182;2023-02-28T09:02:17;98434.84;;;1.69;69.48
31771;BME280;18343;50.152;8.182;2023-02-28T09:05:01;98436.38;;;1.61;69.03
31771;BME280;18343;50.152;8.182;2023-02-28T09:07:46;98452.66;;;1.44;68.52
31771;BME280;18343;50.152;8.182;2023-02-28T09:10:31;98439.78;;;1.63;68.78
31771;BME280;18343;50.152;8.182;2023-02-28T09:13:15;98438.00;;;1.98;67.85
31771;BME280;18343;50.152;8.182;2023-02-28T09:16:18;98446.78;;;1.99;67.75
31771;BME280;18343;50.152;8.182;2023-02-28T09:19:10;98436.75;;;2.15;68.16
31771;BME280;18343;50.152;8.182;2023-02-28T09:21:55;98441.22;;;2.26;67.87
31771;BME280;18343;50.152;8.182;2023-02-28T09:24:49;98440.97;;;2.18;66.30
31771;BME280;18343;50.152;8.182;2023-02-28T09:27:34;98435.09;;;2.36;66.82
31771;BME280;18343;50.152;8.182;2023-02-28T09:30:36;98432.00;;;2.54;66.97
31771;BME280;18343;50.152;8.182;2023-02-28T09:33:22;98438.63;;;2.48;66.21
31771;BME280;18343;50.152;8.182;2023-02-28T09:36:09;98440.56;;;2.57;66.37
31771;BME280;18343;50.152;8.182;2023-02-28T09:38:53;98432.97;;;2.75;65.11
31771;BME280;18343;50.152;8.182;2023-02-28T09:41:45;98434.09;;;2.84;66.27
31771;BME280;18343;50.152;8.182;2023-02-28T09:44:37;98433.97;;;2.85;65.71
31771;BME280;18343;50.152;8.182;2023-02-28T09:47:36;98441.41;;;2.58;64.17
31771;BME280;18343;50.152;8.182;2023-02-28T09:50:34;98428.84;;;2.49;64.05
31771;BME280;18343;50.152;8.182;2023-02-28T09:53:27;98439.75;;;2.68;63.65
31771;BME280;18343;50.152;8.182;2023-02-28T09:56:24;98435.53;;;2.88;63.81
31771;BME280;18343;50.152;8.182;2023-02-28T09:59:17;98439.53;;;2.93;61.89
31771;BME280;18343;50.152;8.182;2023-02-28T10:03:38;98438.69;;;2.70;62.23
31771;BME280;18343;50.152;8.182;2023-02-28T10:06:11;98439.91;;;3.00;61.95
31771;BME280;18343;50.152;8.182;2023-02-28T10:09:08;98435.66;;;3.09;61.70
31771;BME280;18343;50.152;8.182;2023-02-28T10:12:00;98454.72;;;3.02;60.43
31771;BME280;18343;50.152;8.182;2023-02-28T10:14:54;98446.41;;;2.96;61.47
31771;BME280;18343;50.152;8.182;2023-02-28T10:17:45;98443.38;;;3.23;61.14
31771;BME280;18343;50.152;8.182;2023-02-28T10:20:34;98453.16;;;3.33;61.06
31771;BME280;18343;50.152;8.182;2023-02-28T10:23:35;98438.22;;;3.64;61.22
31771;BME280;18343;50.152;8.182;2023-02-28T10:26:37;98452.06;;;3.36;59.61
31771;BME280;18343;50.152;8.182;2023-02-28T10:29:31;98436.34;;;3.55;59.92
31771;BME280;18343;50.152;8.182;2023-02-28T10:32:35;98451.56;;;3.31;59.31
31771;BME280;18343;50.152;8.182;2023-02-28T10:42:26;98451.84;;;3.28;57.61
31771;BME280;18343;50.152;8.182;2023-02-28T10:45:14;98442.09;;;3.71;58.82
31771;BME280;18343;50.152;8.182;2023-02-28T10:48:01;98448.88;;;4.07;58.44
31771;BME280;18343;50.152;8.182;2023-02-28T10:51:07;98442.78;;;4.37;58.32
31771;BME280;18343;50.152;8.182;2023-02-28T10:53:53;98447.78;;;4.52;57.01
31771;BME280;18343;50.152;8.182;2023-02-28T10:56:39;98436.63;;;4.58;57.25
31771;BME280;18343;50.152;8.182;2023-02-28T10:59:30;98437.03;;;4.84;56.51
31771;BME280;18343;50.152;8.182;2023-02-28T11:02:34;98431.53;;;5.06;57.37
31771;BME280;18343;50.152;8.182;2023-02-28T11:05:27;98426.13;;;4.87;53.79
31771;BME280;18343;50.152;8.182;2023-02-28T11:08:15;98436.97;;;4.74;55.74
31771;BME280;18343;50.152;8.182;2023-02-28T11:11:05;98437.69;;;4.76;55.29
31771;BME280;18343;50.152;8.182;2023-02-28T11:13:53;98435.09;;;5.16;55.89
31771;BME280;18343;50.152;8.182;2023-02-28T11:16:40;98436.53;;;4.69;53.41
31771;BME280;18343;50.152;8.182;2023-02-28T11:19:33;98421.28;;;4.50;54.20
31771;BME280;18343;50.152;8.182;2023-02-28T11:22:21;98429.13;;;4.72;54.04
31771;BME280;18343;50.152;8.182;2023-02-28T11:25:10;98427.25;;;4.63;53.72
31771;BME280;18343;50.152;8.182;2023-02-28T11:28:03;98421.91;;;4.42;52.67
31771;BME280;18343;50.152;8.182;2023-02-28T11:31:09;98424.41;;;4.34;53.04
31771;BME280;18343;50.152;8.182;2023-02-28T11:34:00;98419.78;;;4.57;53.29
31771;BME280;18343;50.152;8.182;2023-02-28T11:36:56;98409.31;;;4.96;53.08
31771;BME280;18343;50.152;8.182;2023-02-28T11:39:51;98412.13;;;5.34;53.62
31771;BME280;18343;50.152;8.182;2023-02-28T11:42:55;98408.88;;;5.31;52.47
31771;BME280;18343;50.152;8.182;2023-02-28T11:45:58;98412.13;;;5.34;52.32
31771;BME280;18343;50.152;8.182;2023-02-28T11:49:15;98410.34;;;5.54;52.10
31771;BME280;18343;50.152;8.182;2023-02-28T11:52:24;98412.53;;;5.30;51.94
31771;BME280;18343;50.152;8.182;2023-02-28T11:55:32;98405.84;;;5.45;51.18
31771;BME280;18343;50.152;8.182;2023-02-28T12:02:28;98399.72;;;5.73;50.91
31771;BME280;18343;50.152;8.182;2023-02-28T12:05:27;98396.91;;;5.85;50.42
31771;BME280;18343;50.152;8.182;2023-02-28T12:08:31;98406.19;;;5.71;49.80
31771;BME280;18343;50.152;8.182;2023-02-28T12:11:34;98403.63;;;5.60;50.18
31771;BME280;18343;50.152;8.182;2023-02-28T12:15:05;98405.00;;;5.54;50.10
31771;BME280;18343;50.152;8.182;2023-02-28T12:18:21;98401.25;;;5.86;49.81
31771;BME280;18343;50.152;8.182;2023-02-28T12:21:20;98405.47;;;5.78;49.37
31771;BME280;18343;50.152;8.182;2023-02-28T12:24:22;98398.34;;;5.98;49.55
31771;BME280;18343;50.152;8.182;2023-02-28T12:27:11;98395.84;;;5.97;48.53
31771;BME280;18343;50.152;8.182;2023-02-28T12:30:02;98398.78;;;5.94;48.88
31771;BME280;18343;50.152;8.182;2023-02-28T12:32:50;98392.44;;;6.14;49.09
31771;BME280;18343;50.152;8.182;2023-02-28T12:35:41;98402.28;;;6.23;48.88
31771;BME280;18343;50.152;8.182;2023-02-28T12:38:36;98393.69;;;6.10;48.14
31771;BME280;18343;50.152;8.182;2023-02-28T12:41:54;98391.84;;;6.30;47.74
31771;BME280;18343;50.152;8.182;2023-02-28T12:44:49;98397.75;;;6.43;47.81
31771;BME280;18343;50.152;8.182;2023-02-28T12:47:37;98385.22;;;6.43;47.73
31771;BME280;18343;50.152;8.182;2023-02-28T12:50:23;98389.97;;;6.59;47.44
31771;BME280;18343;50.152;8.182;2023-02-28T12:53:15;98384.31;;;6.72;47.52
31771;BME280;18343;50.152;8.182;2023-02-28T12:56:32;98379.47;;;6.38;46.25
31771;BME280;18343;50.152;8.182;2023-02-28T12:59:52;98384.78;;;6.58;47.21
31771;BME280;18343;50.152;8.182;2023-02-28T13:03:33;98388.94;;;6.23;46.87
31771;BME280;18343;50.152;8.182;2023-02-28T13:07:05;98369.50;;;6.31;46.38
31771;BME280;18343;50.152;8.182;2023-02-28T13:09:57;98379.19;;;6.32;46.15
31771;BME280;18343;50.152;8.182;2023-02-28T13:12:58;98382.09;;;6.58;46.59
31771;BME280;18343;50.152;8.182;2023-02-28T13:16:03;98377.22;;;6.43;46.57
31771;BME280;18343;50.152;8.182;2023-02-28T13:18:50;98382.41;;;6.55;46.26
31771;BME280;18343;50.152;8.182;2023-02-28T13:21:43;98377.44;;;6.69;45.92
31771;BME280;18343;50.152;8.182;2023-02-28T13:24:46;98373.19;;;6.76;45.56
31771;BME280;18343;50.152;8.182;2023-02-28T13:27:39;98373.78;;;6.70;45.78
31771;BME280;18343;50.152;8.182;2023-02-28T13:31:05;98376.59;;;6.69;45.66
31771;BME280;18343;50.152;8.182;2023-02-28T13:34:15;98374.88;;;6.77;46.13
31771;BME280;18343;50.152;8.182;2023-02-28T13:37:32;98374.09;;;6.95;46.10
31771;BME280;18343;50.152;8.182;2023-02-28T13:40:57;98375.06;;;7.03;45.36
31771;BME280;18343;50.152;8.182;2023-02-28T13:44:13;98367.78;;;6.86;44.95
31771;BME280;18343;50.152;8.182;2023-02-28T13:47:24;98374.31;;;6.84;44.71
31771;BME280;18343;50.152;8.182;2023-02-28T13:50:22;98370.00;;;6.63;44.57
31771;BME280;18343;50.152;8.182;2023-02-28T13:53:49;98372.38;;;6.66;44.74
31771;BME280;18343;50.152;8.182;2023-02-28T13:57:04;98366.72;;;6.79;45.27
31771;BME280;18343;50.152;8.182;2023-02-28T14:04:14;98376.59;;;6.69;44.61
31771;BME280;18343;50.152;8.182;2023-02-28T14:07:08;98369.97;;;6.73;44.59
31771;BME280;18343;50.152;8.182;2023-02-28T14:10:03;98361.09;;;6.72;44.66
31771;BME280;18343;50.152;8.182;2023-02-28T14:13:42;98352.69;;;6.67;44.78
31771;BME280;18343;50.152;8.182;2023-02-28T14:16:57;98361.09;;;6.72;44.71
31771;BME280;18343;50.152;8.182;2023-02-28T14:19:47;98363.38;;;6.67;44.40
31771;BME280;18343;50.152;8.182;2023-02-28T14:22:49;98356.41;;;6.84;44.44
31771;BME280;18343;50.152;8.182;2023-02-28T14:25:41;98361.41;;;6.69;44.26
31771;BME280;18343;50.152;8.182;2023-02-28T14:28:48;98352.25;;;6.72;44.12
31771;BME280;18343;50.152;8.182;2023-02-28T14:31:38;98355.75;;;6.72;44.38
31771;BME280;18343;50.152;8.182;2023-02-28T14:34:37;98361.94;;;6.73;44.23
31771;BME280;18343;50.152;8.182;2023-02-28T14:37:30;98363.03;;;6.33;44.31
31771;BME280;18343;50.152;8.182;2023-02-28T14:40:20;98350.22;;;6.47;44.66
31771;BME280;18343;50.152;8.182;2023-02-28T14:43:26;98358.03;;;6.58;43.99
31771;BME280;18343;50.152;8.182;2023-02-28T14:46:14;98348.06;;;6.60;44.10
31771;BME280;18343;50.152;8.182;2023-02-28T14:48:59;98346.84;;;6.54;43.92
31771;BME280;18343;50.152;8.182;2023-02-28T14:51:49;98346.38;;;6.59;44.16
31771;BME280;18343;50.152;8.182;2023-02-28T14:54:36;98344.81;;;6.66;44.39
31771;BME280;18343;50.152;8.182;2023-02-28T14:57:56;98347.16;;;6.78;44.14
31771;BME280;18343;50.152;8.182;2023-02-28T15:00:51;98341.91;;;6.87;43.98
31771;BME280;18343;50.152;8.182;2023-02-28T15:03:39;98350.88;;;6.95;43.94
31771;BME280;18343;50.152;8.182;2023-02-28T15:06:24;98343.16;;;6.92;43.98
31771;BME280;18343;50.152;8.182;2023-02-28T15:09:15;98334.03;;;6.85;43.73
31771;BME280;18343;50.152;8.182;2023-02-28T15:12:05;98331.31;;;6.67;43.70
31771;BME280;18343;50.152;8.182;2023-02-28T15:14:51;98342.25;;;6.74;43.98
31771;BME280;18343;50.152;8.182;2023-02-28T15:17:35;98348.25;;;6.86;44.14
31771;BME280;18343;50.152;8.182;2023-02-28T15:20:22;98344.28;;;6.90;44.20
31771;BME280;18343;50.152;8.182;2023-02-28T15:23:07;98348.84;;;6.79;44.27
31771;BME280;18343;50.152;8.182;2023-02-28T15:25:54;98348.59;;;6.73;44.19
31771;BME280;18343;50.152;8.182;2023-02-28T15:28:44;98346.38;;;6.59;43.84
31771;BME280;18343;50.152;8.182;2023-02-28T15:31:49;98351.34;;;6.54;43.79
31771;BME280;18343;50.152;8.182;2023-02-28T15:35:27;98348.81;;;6.42;43.88
31771;BME280;18343;50.152;8.182;2023-02-28T15:38:21;98355.63;;;6.27;43.95
31771;BME280;18343;50.152;8.182;2023-02-28T15:41:25;98343.38;;;6.15;44.10
31771;BME280;18343;50.152;8.182;2023-02-28T15:44:27;98342.69;;;6.13;43.94